Time;durP1;ratioP1;P1;durP2;ratioP2;P2;SDS_P1;SDS_P2;PMS_P1;PMS_P2;Temp;Humidity;BMP_temperature;BMP_pressure;BME280_temperature;BME280_humidity;BME280_pressure;Samples;Min_cycle;Max_cycle;Signal;HPM_P1;HPM_P2
2023/09/06 00:01:12;;;;;;;7.05;4.88;;;23.30;77.30;;;;;;5034791;28;20048;-70
2023/09/06 00:04:16;;;;;;;10.27;4.75;;;24.70;78.40;;;;;;5034525;28;20048;-70
2023/09/06 00:07:22;;;;;;;10.10;5.05;;;24.70;78.70;;;;;;5034545;28;20044;-69
2023/09/06 00:10:26;;;;;;;9.77;5.05;;;24.60;79.10;;;;;;5034670;28;20068;-70
2023/09/06 00:13:32;;;;;;;6.63;4.72;;;24.60;79.10;;;;;;5033730;28;20049;-71
2023/09/06 00:16:36;;;;;;;11.82;5.43;;;24.60;79.50;;;;;;5034022;28;20064;-70
2023/09/06 00:19:40;;;;;;;6.30;4.72;;;24.60;79.00;;;;;;5034321;28;20049;-70
2023/09/06 00:22:47;;;;;;;9.32;4.50;;;24.70;77.90;;;;;;5034194;28;20052;-69
2023/09/06 00:25:55;;;;;;;8.70;5.07;;;24.70;78.00;;;;;;5034245;28;20049;-69
2023/09/06 00:28:58;;;;;;;6.50;4.97;;;24.60;78.10;;;;;;5033997;28;20040;-69
2023/09/06 00:32:02;;;;;;;7.35;4.70;;;24.90;78.80;;;;;;5034019;28;20048;-69
2023/09/06 00:35:07;;;;;;;6.75;4.90;;;24.60;78.70;;;;;;5032834;28;20060;-69
2023/09/06 00:38:11;;;;;;;10.52;4.63;;;24.50;78.70;;;;;;5032970;28;20393;-69
2023/09/06 00:41:15;;;;;;;11.10;5.15;;;24.50;78.60;;;;;;5034025;28;20052;-69
2023/09/06 00:44:19;;;;;;;9.32;5.70;;;24.40;79.40;;;;;;5033998;28;20487;-69
2023/09/06 00:47:23;;;;;;;7.63;5.13;;;24.40;79.90;;;;;;5033084;28;20052;-69
2023/09/06 00:50:27;;;;;;;9.40;5.45;;;24.30;79.30;;;;;;5032984;28;20465;-69
2023/09/06 00:53:33;;;;;;;7.65;5.22;;;24.30;78.50;;;;;;5033460;28;20052;-69
2023/09/06 00:56:39;;;;;;;9.27;5.20;;;24.40;78.80;;;;;;5032564;28;20048;-69
2023/09/06 00:59:45;;;;;;;10.57;5.40;;;24.40;78.70;;;;;;5032662;28;20049;-69
2023/09/06 01:02:49;;;;;;;8.70;5.30;;;24.30;79.00;;;;;;5033476;28;20044;-69
2023/09/06 01:06:05;;;;;;;9.85;5.63;;;24.40;78.70;;;;;;5033391;28;20056;-69
2023/09/06 01:09:12;;;;;;;12.63;5.78;;;24.40;79.20;;;;;;5033411;28;20044;-70
2023/09/06 01:12:16;;;;;;;6.53;4.85;;;24.30;78.60;;;;;;5033341;28;20057;-69
2023/09/06 01:15:20;;;;;;;12.55;5.70;;;24.40;79.10;;;;;;5032097;28;20508;-70
2023/09/06 01:18:26;;;;;;;11.10;5.50;;;24.40;78.70;;;;;;5021287;28;20048;-70
2023/09/06 01:21:58;;;;;;;8.40;5.53;;;24.40;79.10;;;;;;5033198;28;20492;-69
2023/09/06 01:25:03;;;;;;;8.80;5.30;;;24.40;79.20;;;;;;5033176;28;20033;-70
2023/09/06 01:28:07;;;;;;;17.58;5.32;;;23.90;77.90;;;;;;5032264;28;20485;-70
2023/09/06 01:31:11;;;;;;;7.95;5.10;;;24.50;78.40;;;;;;5033037;28;20045;-69
2023/09/06 01:34:15;;;;;;;11.52;5.57;;;24.10;77.80;;;;;;5032447;28;20061;-69
2023/09/06 01:37:19;;;;;;;7.78;5.65;;;24.40;78.50;;;;;;5032801;28;20492;-69
2023/09/06 01:40:26;;;;;;;8.65;5.10;;;24.30;77.40;;;;;;5032905;28;20500;-70
2023/09/06 01:43:32;;;;;;;10.20;5.15;;;24.50;76.20;;;;;;5031969;28;20052;-70
2023/09/06 01:46:37;;;;;;;8.02;5.30;;;24.50;76.60;;;;;;5031742;28;20048;-69
2023/09/06 01:49:44;;;;;;;8.85;5.43;;;24.60;76.70;;;;;;5031987;28;20045;-69
2023/09/06 01:52:48;;;;;;;13.70;5.63;;;24.60;75.70;;;;;;5031562;28;20052;-69
2023/09/06 01:55:52;;;;;;;9.95;6.10;;;24.60;75.10;;;;;;5032261;28;20418;-70
2023/09/06 01:58:56;;;;;;;10.05;5.57;;;24.60;75.00;;;;;;5032384;28;20052;-70
2023/09/06 02:02:01;;;;;;;14.02;6.05;;;24.60;75.60;;;;;;5032435;28;20048;-70
2023/09/06 02:05:05;;;;;;;9.02;5.55;;;24.70;75.50;;;;;;5032437;28;20434;-70
2023/09/06 02:08:09;;;;;;;6.57;5.80;;;24.70;75.30;;;;;;5031683;28;20052;-69
2023/09/06 02:11:13;;;;;;;10.50;5.28;;;24.70;75.60;;;;;;5031052;28;20045;-70
2023/09/06 02:14:17;;;;;;;11.63;6.07;;;24.80;74.70;;;;;;5031946;28;20044;-69
2023/09/06 02:17:23;;;;;;;13.20;5.85;;;24.80;74.70;;;;;;5031124;28;20044;-69
2023/09/06 02:20:28;;;;;;;9.00;5.78;;;24.80;74.70;;;;;;5032081;28;20045;-69
2023/09/06 02:23:31;;;;;;;16.88;6.03;;;24.70;75.10;;;;;;5032539;28;20052;-69
2023/09/06 02:26:37;;;;;;;10.88;5.97;;;24.70;75.10;;;;;;5031215;28;20040;-69
2023/09/06 02:29:41;;;;;;;10.52;5.97;;;23.10;75.20;;;;;;5031112;28;20044;-70
2023/09/06 02:32:47;;;;;;;11.93;6.18;;;24.60;76.30;;;;;;5031624;28;20064;-70
2023/09/06 02:35:51;;;;;;;7.18;6.15;;;24.60;76.80;;;;;;5030832;28;20060;-70
2023/09/06 02:38:57;;;;;;;12.57;6.75;;;24.60;76.80;;;;;;5031517;28;20041;-69
2023/09/06 02:42:01;;;;;;;10.57;6.35;;;24.60;76.70;;;;;;5030906;28;20659;-70
2023/09/06 02:45:10;;;;;;;12.30;6.30;;;24.60;76.70;;;;;;5030494;28;20040;-69
2023/09/06 02:48:16;;;;;;;8.43;6.70;;;24.50;76.40;;;;;;5030577;28;20048;-69
2023/09/06 02:51:20;;;;;;;13.48;5.95;;;24.60;76.90;;;;;;5030493;28;20048;-70
2023/09/06 02:54:24;;;;;;;12.90;6.47;;;24.50;76.70;;;;;;5031270;28;20056;-69
2023/09/06 02:57:30;;;;;;;8.95;6.38;;;24.10;76.50;;;;;;5031106;28;20060;-69
2023/09/06 03:00:36;;;;;;;11.05;6.28;;;24.50;76.40;;;;;;5031452;28;20048;-70
2023/09/06 03:03:42;;;;;;;8.95;6.85;;;22.40;75.60;;;;;;5031270;28;20044;-70
2023/09/06 03:06:46;;;;;;;10.52;6.80;;;24.50;77.30;;;;;;5030211;28;20044;-69
2023/09/06 03:09:51;;;;;;;9.77;6.22;;;24.40;77.30;;;;;;5030510;28;20059;-70
2023/09/06 03:12:57;;;;;;;10.40;6.40;;;24.50;76.80;;;;;;5030374;28;20048;-70
2023/09/06 03:16:04;;;;;;;12.73;6.97;;;24.50;77.30;;;;;;5030036;28;20048;-70
2023/09/06 03:19:10;;;;;;;12.38;7.22;;;24.50;77.40;;;;;;5030117;28;20401;-69
2023/09/06 03:22:15;;;;;;;16.25;7.50;;;24.40;76.90;;;;;;5030024;28;20048;-69
2023/09/06 03:25:20;;;;;;;7.45;6.60;;;23.20;76.60;;;;;;5030298;28;20401;-70
2023/09/06 03:28:25;;;;;;;8.82;6.90;;;24.40;77.30;;;;;;5030327;28;20113;-70
2023/09/06 03:31:29;;;;;;;10.32;7.10;;;24.30;77.30;;;;;;5031091;28;20044;-69
2023/09/06 03:34:37;;;;;;;8.63;6.63;;;25.20;77.50;;;;;;5030020;28;20060;-69
2023/09/06 03:37:42;;;;;;;11.82;6.55;;;24.30;77.60;;;;;;5030035;28;20053;-69
2023/09/06 03:40:46;;;;;;;12.52;6.70;;;24.30;77.00;;;;;;5018655;28;20056;-69
2023/09/06 03:43:52;;;;;;;12.60;6.88;;;24.30;76.30;;;;;;5030023;28;20040;-70
2023/09/06 03:46:56;;;;;;;11.50;7.18;;;24.40;76.50;;;;;;5030193;28;20497;-70
2023/09/06 03:50:01;;;;;;;12.02;7.50;;;24.30;76.60;;;;;;5030890;28;20385;-70
2023/09/06 03:53:05;;;;;;;10.63;7.20;;;24.30;77.00;;;;;;5030242;28;20496;-69
2023/09/06 03:56:10;;;;;;;9.68;7.22;;;24.30;77.80;;;;;;5030841;28;20052;-69
2023/09/06 03:59:21;;;;;;;10.95;7.60;;;24.30;78.00;;;;;;5029893;28;20040;-69
2023/09/06 04:02:27;;;;;;;10.65;7.80;;;24.30;77.30;;;;;;5030114;28;20068;-69
2023/09/06 04:05:32;;;;;;;11.52;7.13;;;24.20;77.80;;;;;;5029992;28;20048;-70
2023/09/06 04:08:38;;;;;;;13.40;7.07;;;24.20;77.50;;;;;;5029850;28;20048;-70
2023/09/06 04:11:42;;;;;;;10.13;6.88;;;24.20;76.70;;;;;;5018584;28;20045;-70
2023/09/06 04:14:46;;;;;;;8.55;7.22;;;24.30;75.60;;;;;;5029754;28;20422;-70
2023/09/06 04:18:00;;;;;;;13.02;7.35;;;24.30;76.30;;;;;;5031484;28;20044;-68
2023/09/06 04:21:08;;;;;;;12.25;7.07;;;24.40;76.10;;;;;;5018564;28;20044;-70
2023/09/06 04:24:13;;;;;;;15.68;7.78;;;24.30;76.80;;;;;;5029590;28;20064;-70
2023/09/06 04:27:20;;;;;;;17.83;7.75;;;24.30;77.50;;;;;;5030704;28;20044;-70
2023/09/06 04:30:28;;;;;;;14.77;8.07;;;24.30;77.60;;;;;;5029804;28;20069;-70
2023/09/06 04:33:33;;;;;;;13.95;8.18;;;24.30;77.30;;;;;;5029372;28;20076;-69
2023/09/06 04:36:55;;;;;;;10.48;7.72;;;24.40;78.00;;;;;;5033188;28;20056;-71
2023/09/06 04:39:59;;;;;;;8.65;7.65;;;24.30;77.70;;;;;;5033472;28;20049;-69
2023/09/06 04:43:07;;;;;;;11.18;7.55;;;24.30;77.00;;;;;;5033000;28;20052;-69
2023/09/06 04:46:11;;;;;;;27.38;9.75;;;24.40;76.70;;;;;;5033866;28;20654;-68
2023/09/06 04:49:21;;;;;;;25.08;9.02;;;24.40;77.20;;;;;;5032903;28;20040;-70
2023/09/06 04:52:27;;;;;;;13.82;8.38;;;24.90;77.70;;;;;;5033107;28;20049;-69
2023/09/06 04:55:35;;;;;;;11.73;9.57;;;24.40;77.40;;;;;;5032718;28;20052;-72
2023/09/06 04:58:42;;;;;;;16.13;7.60;;;24.30;77.20;;;;;;5032682;28;20063;-70
2023/09/06 05:01:45;;;;;;;11.10;7.60;;;25.00;77.60;;;;;;5032714;28;20049;-70
2023/09/06 05:04:50;;;;;;;8.65;7.80;;;24.40;77.20;;;;;;5032480;28;20389;-69
2023/09/06 05:07:55;;;;;;;25.35;9.50;;;25.60;77.40;;;;;;5032770;28;20056;-70
2023/09/06 05:11:00;;;;;;;22.55;8.63;;;24.50;77.30;;;;;;5021274;28;20044;-70
2023/09/06 05:14:04;;;;;;;12.82;8.68;;;24.60;77.10;;;;;;5032382;28;20354;-73
2023/09/06 05:17:07;;;;;;;11.82;8.02;;;24.60;77.90;;;;;;5032457;28;20053;-71
2023/09/06 05:20:27;;;;;;;29.38;8.57;;;24.60;76.40;;;;;;5033088;28;20041;-69
2023/09/06 05:23:35;;;;;;;12.63;8.77;;;24.70;76.70;;;;;;5032282;28;20044;-60
2023/09/06 05:26:40;;;;;;;15.55;8.57;;;24.80;77.70;;;;;;5031998;28;20049;-62
2023/09/06 05:29:44;;;;;;;15.82;8.00;;;25.30;76.20;;;;;;5031988;28;20048;-60
2023/09/06 05:32:49;;;;;;;21.92;8.50;;;25.60;76.50;;;;;;5031777;28;20056;-61
2023/09/06 05:35:54;;;;;;;12.80;8.40;;;25.50;75.70;;;;;;5032402;28;20056;-59
2023/09/06 05:38:59;;;;;;;19.45;7.97;;;25.60;73.80;;;;;;5031954;28;20052;-60
2023/09/06 05:42:04;;;;;;;12.05;7.30;;;27.70;75.40;;;;;;5020429;28;20048;-61
2023/09/06 05:45:11;;;;;;;10.43;7.97;;;25.40;74.30;;;;;;5031346;28;20041;-61
2023/09/06 05:48:17;;;;;;;13.55;7.90;;;26.60;74.20;;;;;;5030883;28;20040;-60
2023/09/06 05:51:21;;;;;;;10.10;7.03;;;27.00;73.60;;;;;;5032460;28;20070;-60
2023/09/06 05:54:27;;;;;;;15.63;7.47;;;27.30;72.10;;;;;;5031333;28;20108;-61
2023/09/06 05:57:32;;;;;;;10.25;6.57;;;27.60;71.20;;;;;;5032027;28;20044;-60
2023/09/06 06:00:36;;;;;;;17.90;7.53;;;28.20;70.30;;;;;;5019600;28;20052;-59
2023/09/06 06:03:41;;;;;;;12.23;6.93;;;28.10;69.80;;;;;;5031097;28;20049;-61
2023/09/06 06:06:47;;;;;;;13.45;6.65;;;28.00;69.90;;;;;;5031183;28;20381;-61
2023/09/06 06:09:51;;;;;;;23.65;7.22;;;27.90;70.70;;;;;;5030954;28;20543;-61
2023/09/06 06:12:55;;;;;;;14.73;7.38;;;28.00;69.60;;;;;;5032252;28;20052;-62
2023/09/06 06:15:59;;;;;;;11.60;7.65;;;27.90;70.80;;;;;;5031063;28;20064;-61
2023/09/06 06:19:03;;;;;;;13.60;7.50;;;27.90;71.00;;;;;;5032096;28;20397;-61
2023/09/06 06:22:07;;;;;;;18.55;7.88;;;28.00;71.70;;;;;;5032054;28;20049;-62
2023/09/06 06:25:11;;;;;;;13.77;7.03;;;27.90;71.50;;;;;;5031531;28;20037;-61
2023/09/06 06:28:15;;;;;;;10.32;6.45;;;27.80;70.80;;;;;;5031791;28;20116;-63
2023/09/06 06:31:19;;;;;;;10.35;7.03;;;27.90;70.10;;;;;;5019696;28;20056;-62
2023/09/06 06:34:24;;;;;;;18.55;7.80;;;28.20;70.60;;;;;;5031304;28;20044;-60
2023/09/06 06:37:28;;;;;;;20.73;6.55;;;28.40;70.80;;;;;;5031217;28;20068;-60
2023/09/06 06:40:36;;;;;;;12.02;7.30;;;28.50;69.80;;;;;;5031655;28;20048;-61
2023/09/06 06:43:40;;;;;;;19.65;7.65;;;28.70;69.80;;;;;;5030470;28;20056;-60
2023/09/06 06:46:44;;;;;;;10.10;6.78;;;28.80;68.70;;;;;;5029674;28;20508;-61
2023/09/06 06:49:54;;;;;;;16.10;7.25;;;29.00;69.30;;;;;;5029511;28;20052;-60
2023/09/06 06:52:58;;;;;;;11.25;7.20;;;28.60;69.50;;;;;;5030704;28;20116;-60
2023/09/06 06:56:02;;;;;;;15.45;7.13;;;28.20;70.70;;;;;;5030260;28;20067;-64
2023/09/06 06:59:09;;;;;;;12.00;7.05;;;28.10;71.40;;;;;;5030347;28;20044;-61
2023/09/06 07:02:13;;;;;;;13.30;6.82;;;28.10;72.20;;;;;;5030993;28;20040;-60
2023/09/06 07:05:17;;;;;;;10.95;6.50;;;27.80;70.80;;;;;;5031203;28;20646;-61
2023/09/06 07:08:23;;;;;;;17.20;7.30;;;27.80;70.80;;;;;;5031201;28;20040;-60
2023/09/06 07:11:27;;;;;;;14.95;7.22;;;27.80;70.70;;;;;;5031102;28;20151;-60
2023/09/06 07:14:31;;;;;;;15.77;7.25;;;28.00;70.40;;;;;;5031039;28;20059;-61
2023/09/06 07:17:36;;;;;;;23.13;6.82;;;28.30;70.00;;;;;;5030776;28;20044;-61
2023/09/06 07:20:41;;;;;;;11.88;7.32;;;28.30;69.10;;;;;;5030597;28;20053;-61
2023/09/06 07:23:46;;;;;;;17.13;6.88;;;28.50;69.30;;;;;;5031108;28;20394;-61
2023/09/06 07:26:49;;;;;;;15.57;6.57;;;28.50;69.30;;;;;;5030854;28;20064;-62
2023/09/06 07:29:54;;;;;;;15.52;7.30;;;28.60;69.20;;;;;;5029992;28;20040;-61
2023/09/06 07:32:58;;;;;;;16.38;7.30;;;28.50;69.90;;;;;;5030778;28;20073;-61
2023/09/06 07:36:02;;;;;;;22.58;6.55;;;28.40;69.80;;;;;;5030502;28;20048;-60
2023/09/06 07:39:07;;;;;;;8.95;6.35;;;28.60;69.60;;;;;;5030433;28;20428;-61
2023/09/06 07:42:11;;;;;;;12.07;6.97;;;28.40;70.20;;;;;;5030538;28;20048;-62
2023/09/06 07:45:15;;;;;;;11.73;7.50;;;28.30;71.70;;;;;;5030787;28;20054;-60
2023/09/06 07:48:19;;;;;;;13.48;6.88;;;28.30;71.60;;;;;;5030619;28;20048;-61
2023/09/06 07:51:23;;;;;;;16.35;7.35;;;28.30;71.50;;;;;;5030659;28;20053;-60
2023/09/06 07:54:31;;;;;;;18.95;7.97;;;28.10;71.90;;;;;;5029526;28;20048;-61
2023/09/06 07:57:35;;;;;;;15.63;8.15;;;28.20;72.40;;;;;;5030701;28;20052;-61
2023/09/06 08:00:39;;;;;;;13.27;8.25;;;28.10;72.60;;;;;;5030641;28;20049;-60
2023/09/06 08:03:42;;;;;;;16.88;7.53;;;28.10;72.90;;;;;;5030529;28;20040;-61
2023/09/06 08:06:46;;;;;;;10.32;7.18;;;28.40;71.10;;;;;;5030622;28;20045;-60
2023/09/06 08:09:51;;;;;;;10.18;7.68;;;28.30;71.10;;;;;;5030866;28;20041;-61
2023/09/06 08:12:55;;;;;;;19.65;7.68;;;28.40;71.70;;;;;;5034385;28;20068;-60
2023/09/06 08:15:59;;;;;;;19.20;7.43;;;28.60;71.20;;;;;;5033935;28;20056;-61
2023/09/06 08:19:03;;;;;;;11.18;7.10;;;28.80;70.20;;;;;;5034185;28;20044;-60
2023/09/06 08:22:07;;;;;;;14.52;7.15;;;28.80;70.20;;;;;;5034120;28;20049;-62
2023/09/06 08:25:12;;;;;;;17.83;6.90;;;28.50;70.90;;;;;;5034230;28;20048;-62
2023/09/06 08:28:18;;;;;;;12.63;6.85;;;28.60;70.40;;;;;;5033891;28;20036;-61
2023/09/06 08:31:22;;;;;;;17.63;7.55;;;28.50;69.90;;;;;;5034281;28;20203;-64
2023/09/06 08:34:26;;;;;;;8.95;6.57;;;28.50;70.20;;;;;;5033854;28;20052;-63
2023/09/06 08:37:30;;;;;;;13.70;7.40;;;28.60;69.30;;;;;;5032747;28;20056;-60
2023/09/06 08:40:35;;;;;;;12.15;6.45;;;28.50;69.80;;;;;;5032080;28;20044;-61
2023/09/06 08:43:43;;;;;;;12.27;6.93;;;28.60;68.90;;;;;;5032019;28;20689;-61
2023/09/06 08:46:50;;;;;;;18.25;7.00;;;28.60;69.10;;;;;;5031729;28;20045;-62
2023/09/06 08:49:57;;;;;;;13.05;6.45;;;28.70;68.60;;;;;;5032351;28;20413;-63
2023/09/06 08:53:03;;;;;;;15.13;6.80;;;28.70;69.10;;;;;;5032616;28;20048;-63
2023/09/06 08:56:08;;;;;;;9.05;6.20;;;28.80;68.10;;;;;;5032263;28;20060;-62
2023/09/06 08:59:12;;;;;;;16.98;7.20;;;28.80;67.50;;;;;;5033665;28;20052;-61
2023/09/06 09:02:17;;;;;;;8.82;6.70;;;28.70;68.10;;;;;;5033396;28;20112;-64
2023/09/06 09:05:24;;;;;;;12.38;6.40;;;28.90;67.80;;;;;;5033267;28;20041;-63
2023/09/06 09:08:31;;;;;;;16.65;7.20;;;29.00;66.50;;;;;;5033268;28;20040;-63
2023/09/06 09:11:42;;;;;;;9.73;6.60;;;28.90;66.70;;;;;;5033080;28;20045;-61
2023/09/06 09:14:47;;;;;;;10.15;6.25;;;28.90;66.20;;;;;;5032763;28;20044;-62
2023/09/06 09:17:51;;;;;;;8.52;6.32;;;28.90;66.30;;;;;;5032000;28;20048;-60
2023/09/06 09:20:57;;;;;;;13.98;6.75;;;29.00;67.20;;;;;;5033014;28;20048;-62
2023/09/06 09:24:01;;;;;;;13.98;6.40;;;29.20;66.30;;;;;;5032879;28;20045;-64
2023/09/06 09:27:05;;;;;;;10.45;6.43;;;29.40;65.80;;;;;;5032255;28;20045;-62
2023/09/06 09:30:11;;;;;;;13.20;6.43;;;29.40;65.30;;;;;;5033087;28;20052;-61
2023/09/06 09:33:15;;;;;;;26.17;6.97;;;29.40;65.20;;;;;;5032769;28;20044;-61
2023/09/06 09:36:19;;;;;;;9.90;6.50;;;29.50;64.90;;;;;;5032645;28;20406;-61
2023/09/06 09:39:27;;;;;;;11.85;6.22;;;29.40;64.80;;;;;;5032614;28;20536;-61
2023/09/06 09:42:31;;;;;;;11.27;6.30;;;29.40;64.30;;;;;;5032671;28;20121;-61
2023/09/06 09:45:43;;;;;;;11.95;6.15;;;29.40;64.10;;;;;;5032677;28;20072;-59
2023/09/06 09:48:48;;;;;;;10.70;6.40;;;29.40;64.00;;;;;;5032646;28;20508;-61
2023/09/06 09:51:53;;;;;;;11.80;6.47;;;29.60;64.30;;;;;;5031610;28;20044;-61
2023/09/06 09:55:02;;;;;;;13.60;6.43;;;29.60;64.10;;;;;;5031105;28;20053;-62
2023/09/06 09:58:09;;;;;;;12.02;6.28;;;29.70;63.50;;;;;;5030366;28;20044;-61
2023/09/06 10:01:14;;;;;;;29.17;6.95;;;29.80;63.80;;;;;;5030979;28;20385;-61
2023/09/06 10:04:21;;;;;;;12.43;7.28;;;30.00;62.70;;;;;;5030376;28;20540;-62
2023/09/06 10:07:25;;;;;;;10.23;6.07;;;30.00;62.70;;;;;;5030338;28;20048;-62
2023/09/06 10:10:29;;;;;;;12.48;5.95;;;30.00;62.60;;;;;;5030086;28;20052;-65
2023/09/06 10:13:34;;;;;;;15.70;6.50;;;30.10;62.10;;;;;;5031423;28;20389;-61
2023/09/06 10:16:38;;;;;;;8.63;5.68;;;30.00;62.10;;;;;;5031716;28;20052;-62
2023/09/06 10:19:42;;;;;;;8.88;5.47;;;30.00;62.20;;;;;;5030557;28;20048;-61
2023/09/06 10:22:52;;;;;;;10.35;6.03;;;30.10;62.10;;;;;;5031029;28;20040;-66
2023/09/06 10:26:00;;;;;;;9.18;5.97;;;30.20;62.70;;;;;;5031060;28;20160;-62
2023/09/06 10:29:09;;;;;;;19.20;6.57;;;30.40;61.90;;;;;;5030617;28;20052;-61
2023/09/06 10:32:13;;;;;;;11.50;6.80;;;31.10;61.50;;;;;;5029166;28;20049;-64
2023/09/06 10:35:30;;;;;;;9.57;5.50;;;30.90;60.80;;;;;;5029837;28;20044;-61
2023/09/06 10:38:58;;;;;;;20.10;7.50;;;31.20;61.70;;;;;;5030073;28;20053;-60
2023/09/06 10:42:11;;;;;;;10.95;6.00;;;32.00;60.10;;;;;;5030931;28;20041;-60
2023/09/06 10:45:15;;;;;;;8.40;5.90;;;31.20;60.20;;;;;;5029733;28;20052;-62
2023/09/06 10:48:19;;;;;;;8.45;6.25;;;30.50;61.50;;;;;;5028157;28;20230;-61
2023/09/06 10:51:23;;;;;;;15.93;5.70;;;30.30;62.50;;;;;;5029147;28;20056;-63
2023/09/06 10:54:38;;;;;;;10.45;5.72;;;30.40;62.20;;;;;;5029230;28;20056;-61
2023/09/06 10:58:00;;;;;;;10.55;5.97;;;30.30;62.30;;;;;;5030219;28;20407;-62
2023/09/06 11:01:17;;;;;;;12.50;5.70;;;30.20;62.00;;;;;;5031301;28;20048;-61
2023/09/06 11:04:26;;;;;;;8.25;6.05;;;30.20;62.10;;;;;;5030215;28;20373;-60
2023/09/06 11:07:44;;;;;;;18.33;6.60;;;30.20;61.90;;;;;;5028938;28;20048;-62
2023/09/06 11:10:48;;;;;;;12.38;6.18;;;30.30;61.20;;;;;;5029442;28;20052;-61
2023/09/06 11:13:56;;;;;;;13.73;5.57;;;30.20;61.40;;;;;;5030286;28;20053;-60
2023/09/06 11:17:01;;;;;;;11.30;6.03;;;30.10;61.90;;;;;;5030102;28;20056;-59
2023/09/06 11:20:13;;;;;;;10.27;5.53;;;30.10;61.30;;;;;;5030552;28;20064;-61
2023/09/06 11:23:17;;;;;;;12.48;5.90;;;30.20;61.90;;;;;;5030757;28;20048;-61
2023/09/06 11:26:21;;;;;;;8.13;5.68;;;30.20;62.00;;;;;;5031021;28;20075;-61
2023/09/06 11:29:31;;;;;;;7.85;5.57;;;30.30;62.00;;;;;;5030900;28;20052;-61
2023/09/06 11:32:35;;;;;;;10.33;5.90;;;30.30;61.70;;;;;;5030541;28;20048;-61
2023/09/06 11:35:51;;;;;;;11.52;5.10;;;30.40;61.70;;;;;;5029599;28;20235;-62
2023/09/06 11:38:57;;;;;;;17.08;5.80;;;30.40;60.60;;;;;;5031083;28;20068;-62
2023/09/06 11:42:02;;;;;;;10.85;5.88;;;30.40;61.80;;;;;;5031075;28;20393;-61
2023/09/06 11:45:09;;;;;;;11.18;5.50;;;30.50;62.20;;;;;;5032116;28;20045;-61
2023/09/06 11:48:19;;;;;;;10.60;5.82;;;30.60;62.00;;;;;;5035123;28;20057;-60
2023/09/06 11:51:24;;;;;;;8.45;5.30;;;30.50;61.60;;;;;;5035003;28;20113;-61
2023/09/06 11:54:31;;;;;;;9.23;5.95;;;30.50;61.20;;;;;;5034688;28;20053;-60
2023/09/06 11:57:39;;;;;;;7.13;6.43;;;30.60;61.40;;;;;;5034553;28;20069;-60
2023/09/06 12:00:47;;;;;;;9.30;6.40;;;30.60;61.90;;;;;;5034386;28;20041;-61
2023/09/06 12:03:56;;;;;;;9.27;6.55;;;30.70;61.90;;;;;;5034431;28;20040;-61
2023/09/06 12:07:02;;;;;;;6.18;5.50;;;30.70;62.00;;;;;;5033251;28;20393;-61
2023/09/06 12:10:06;;;;;;;6.50;5.70;;;30.50;60.80;;;;;;5033920;28;20056;-60
2023/09/06 12:13:10;;;;;;;7.47;5.68;;;30.80;62.00;;;;;;5034056;28;20048;-60
2023/09/06 12:16:17;;;;;;;7.32;5.65;;;31.50;60.60;;;;;;5034185;28;20206;-62
2023/09/06 12:19:21;;;;;;;10.52;5.85;;;32.40;59.50;;;;;;5033870;28;20393;-62
2023/09/06 12:22:25;;;;;;;12.40;5.97;;;32.70;58.90;;;;;;5034428;28;20048;-62
2023/09/06 12:25:28;;;;;;;16.58;6.35;;;33.00;59.00;;;;;;5034434;28;20052;-62
2023/09/06 12:28:32;;;;;;;21.58;5.88;;;32.80;59.10;;;;;;5034175;28;20060;-61
2023/09/06 12:31:36;;;;;;;9.20;6.38;;;32.70;59.00;;;;;;5034118;28;20500;-63
2023/09/06 12:34:40;;;;;;;12.07;5.78;;;32.70;59.30;;;;;;5033928;28;20068;-62
2023/09/06 12:37:45;;;;;;;7.22;6.22;;;32.90;59.10;;;;;;5033884;28;20052;-61
2023/09/06 12:40:50;;;;;;;10.88;5.72;;;33.60;58.30;;;;;;5033845;28;20393;-62
2023/09/06 12:43:54;;;;;;;11.07;6.93;;;33.20;58.70;;;;;;5034072;28;20044;-62
2023/09/06 12:46:58;;;;;;;9.80;5.97;;;33.50;59.10;;;;;;5034058;28;20397;-62
2023/09/06 12:50:05;;;;;;;14.32;5.80;;;34.10;58.60;;;;;;5033901;28;20049;-62
2023/09/06 12:53:10;;;;;;;8.50;5.10;;;34.00;57.70;;;;;;5033753;28;20048;-61
2023/09/06 12:56:14;;;;;;;13.10;5.57;;;33.60;58.40;;;;;;5032861;28;20064;-61
2023/09/06 12:59:18;;;;;;;11.27;5.78;;;34.10;58.60;;;;;;5033425;28;20116;-61
2023/09/06 13:02:24;;;;;;;9.88;5.10;;;33.80;58.80;;;;;;5033458;28;20044;-62
2023/09/06 13:05:30;;;;;;;9.73;5.65;;;33.80;57.80;;;;;;5033505;28;20052;-62
2023/09/06 13:08:36;;;;;;;20.63;6.38;;;33.20;58.40;;;;;;5033608;28;20036;-61
2023/09/06 13:11:39;;;;;;;18.17;6.28;;;32.60;59.40;;;;;;5033725;28;20048;-60
2023/09/06 13:14:43;;;;;;;16.60;5.93;;;33.00;59.10;;;;;;5033192;28;20040;-61
2023/09/06 13:17:47;;;;;;;11.75;6.35;;;33.40;58.60;;;;;;5033056;28;20052;-62
2023/09/06 13:20:57;;;;;;;9.40;6.22;;;32.90;58.50;;;;;;5033231;28;20044;-59
2023/09/06 13:24:00;;;;;;;8.75;5.70;;;32.90;58.70;;;;;;5032839;28;20488;-61
2023/09/06 13:27:04;;;;;;;10.73;5.40;;;33.30;59.20;;;;;;5032923;28;20065;-62
2023/09/06 13:30:09;;;;;;;10.45;6.10;;;33.10;58.50;;;;;;5032985;28;20056;-61
2023/09/06 13:33:13;;;;;;;9.10;6.05;;;32.60;58.90;;;;;;5032507;28;20048;-60
2023/09/06 13:36:18;;;;;;;12.80;6.07;;;32.80;58.30;;;;;;5030938;28;20056;-60
2023/09/06 13:39:22;;;;;;;10.52;5.97;;;33.10;58.00;;;;;;5031451;28;20056;-60
2023/09/06 13:42:27;;;;;;;7.75;5.80;;;33.20;58.00;;;;;;5031782;28;20064;-60
2023/09/06 13:45:31;;;;;;;12.77;6.25;;;33.20;58.00;;;;;;5032088;28;20052;-61
2023/09/06 13:48:35;;;;;;;12.90;6.22;;;33.40;58.00;;;;;;5032444;28;20048;-59
2023/09/06 13:51:39;;;;;;;18.60;6.07;;;32.50;58.50;;;;;;5032635;28;20044;-61
2023/09/06 13:54:44;;;;;;;10.25;5.80;;;32.10;59.40;;;;;;5032230;28;20064;-62
2023/09/06 13:57:48;;;;;;;9.50;5.88;;;31.70;60.70;;;;;;5032133;28;20053;-63
2023/09/06 14:00:58;;;;;;;12.52;5.80;;;31.30;60.20;;;;;;5030840;28;20044;-62
2023/09/06 14:04:03;;;;;;;14.73;5.63;;;31.00;60.70;;;;;;5032479;28;20046;-62
2023/09/06 14:07:07;;;;;;;10.05;5.78;;;30.90;60.90;;;;;;5031622;28;20053;-61
2023/09/06 14:10:11;;;;;;;25.08;7.00;;;30.70;60.80;;;;;;5032201;28;20052;-69
2023/09/06 14:13:15;;;;;;;14.60;6.35;;;30.50;61.10;;;;;;5032151;28;20044;-70
2023/09/06 14:16:20;;;;;;;12.52;6.72;;;30.40;62.40;;;;;;5032110;28;20056;-68
2023/09/06 14:19:25;;;;;;;10.45;5.85;;;30.30;63.00;;;;;;5030727;28;20044;-65
2023/09/06 14:22:30;;;;;;;10.27;5.68;;;30.20;63.90;;;;;;5031746;28;20040;-65
2023/09/06 14:25:34;;;;;;;8.25;5.72;;;30.10;62.40;;;;;;5031874;28;20041;-65
2023/09/06 14:28:38;;;;;;;8.18;5.78;;;30.00;62.40;;;;;;5031527;28;20532;-65
2023/09/06 14:31:42;;;;;;;7.47;6.30;;;30.00;62.60;;;;;;5031664;28;20056;-65
2023/09/06 14:34:48;;;;;;;14.52;5.95;;;29.80;62.70;;;;;;5029819;28;20052;-65
2023/09/06 14:37:52;;;;;;;11.77;6.15;;;29.70;62.90;;;;;;5030407;28;20052;-66
2023/09/06 14:40:57;;;;;;;20.85;5.88;;;29.60;62.80;;;;;;5030509;28;20040;-64
2023/09/06 14:44:00;;;;;;;11.93;6.18;;;29.60;62.90;;;;;;5030565;28;20041;-67
2023/09/06 14:47:05;;;;;;;14.43;6.13;;;29.50;62.70;;;;;;5031219;28;20049;-65
2023/09/06 14:50:09;;;;;;;9.40;6.20;;;29.50;63.60;;;;;;5031426;28;20056;-65
2023/09/06 14:53:13;;;;;;;9.38;6.35;;;29.50;63.00;;;;;;5030982;28;20056;-67
2023/09/06 14:56:18;;;;;;;6.70;5.47;;;29.40;62.60;;;;;;5031268;28;20044;-67
2023/09/06 14:59:23;;;;;;;9.55;6.50;;;29.40;63.00;;;;;;5031464;28;20045;-68
2023/09/06 15:02:27;;;;;;;12.38;6.00;;;29.40;63.10;;;;;;5031429;28;20362;-65
2023/09/06 15:05:34;;;;;;;9.82;6.18;;;29.40;63.20;;;;;;5031189;28;20044;-65
2023/09/06 15:08:40;;;;;;;10.05;5.70;;;29.30;63.30;;;;;;5031054;28;20517;-66
2023/09/06 15:11:44;;;;;;;7.45;5.85;;;29.30;63.40;;;;;;5031259;28;20508;-67
2023/09/06 15:14:48;;;;;;;11.30;6.10;;;30.00;62.90;;;;;;5031031;28;20519;-64
2023/09/06 15:17:53;;;;;;;10.30;5.85;;;30.90;61.60;;;;;;5030044;28;20072;-66
2023/09/06 15:20:57;;;;;;;12.60;6.22;;;31.50;60.80;;;;;;5030928;28;20045;-67
2023/09/06 15:24:01;;;;;;;12.55;6.38;;;30.90;61.10;;;;;;5030843;28;20045;-68
2023/09/06 15:27:05;;;;;;;15.38;6.40;;;30.40;62.20;;;;;;5031256;28;20191;-66
2023/09/06 15:30:09;;;;;;;14.45;5.93;;;30.10;62.40;;;;;;5030947;28;20056;-68
2023/09/06 15:33:13;;;;;;;9.98;5.65;;;29.80;62.90;;;;;;5030627;28;20057;-66
2023/09/06 15:36:20;;;;;;;10.73;5.47;;;29.60;63.10;;;;;;5030535;28;20061;-68
2023/09/06 15:39:24;;;;;;;10.32;6.03;;;29.60;63.40;;;;;;5030737;28;20041;-68
2023/09/06 15:42:28;;;;;;;10.45;6.25;;;29.60;63.80;;;;;;5030657;28;20064;-67
2023/09/06 15:45:32;;;;;;;11.50;5.88;;;29.50;63.50;;;;;;5030589;28;20045;-67
2023/09/06 15:48:37;;;;;;;10.63;5.80;;;29.50;64.00;;;;;;5029700;28;20056;-66
2023/09/06 15:51:41;;;;;;;12.52;6.93;;;29.50;64.30;;;;;;5030552;28;20037;-65
2023/09/06 15:54:46;;;;;;;11.60;6.03;;;29.50;64.00;;;;;;5030228;28;20052;-67
2023/09/06 15:57:50;;;;;;;16.25;6.20;;;29.50;63.90;;;;;;5030343;28;20052;-67